sensor_id;sensor_type;location;lat;lon;timestamp;temperature;humidity
11944;DHT22;6031;50.220;10.122;2023-04-03T00:01:00;3.30;99.90
11944;DHT22;6031;50.220;10.122;2023-04-03T00:03:26;3.30;99.90
11944;DHT22;6031;50.220;10.122;2023-04-03T00:05:52;3.30;1.00
11944;DHT22;6031;50.220;10.122;2023-04-03T00:08:17;3.30;99.90
11944;DHT22;6031;50.220;10.122;2023-04-03T00:10:43;3.30;99.90
11944;DHT22;6031;50.220;10.122;2023-04-03T00:13:09;3.30;99.90
11944;DHT22;6031;50.220;10.122;2023-04-03T00:15:36;3.40;1.00
11944;DHT22;6031;50.220;10.122;2023-04-03T00:18:02;3.30;1.00
11944;DHT22;6031;50.220;10.122;2023-04-03T00:20:28;3.40;1.00
11944;DHT22;6031;50.220;10.122;2023-04-03T00:22:54;3.40;1.00
11944;DHT22;6031;50.220;10.122;2023-04-03T00:25:20;3.40;1.00
11944;DHT22;6031;50.220;10.122;2023-04-03T00:27:45;3.40;99.90
11944;DHT22;6031;50.220;10.122;2023-04-03T00:30:14;3.40;99.90
11944;DHT22;6031;50.220;10.122;2023-04-03T00:32:40;3.40;1.50
11944;DHT22;6031;50.220;10.122;2023-04-03T00:35:06;3.50;1.00
11944;DHT22;6031;50.220;10.122;2023-04-03T00:37:32;3.50;1.00
11944;DHT22;6031;50.220;10.122;2023-04-03T00:39:57;3.50;1.00
11944;DHT22;6031;50.220;10.122;2023-04-03T00:42:23;3.50;1.00
11944;DHT22;6031;50.220;10.122;2023-04-03T00:47:16;3.50;99.90
11944;DHT22;6031;50.220;10.122;2023-04-03T00:49:42;3.50;1.00
11944;DHT22;6031;50.220;10.122;2023-04-03T00:52:13;3.50;1.00
11944;DHT22;6031;50.220;10.122;2023-04-03T00:54:41;3.50;1.00
11944;DHT22;6031;50.220;10.122;2023-04-03T00:57:08;3.50;99.90
11944;DHT22;6031;50.220;10.122;2023-04-03T00:59:38;3.50;48.20
11944;DHT22;6031;50.220;10.122;2023-04-03T01:02:06;3.50;1.00
11944;DHT22;6031;50.220;10.122;2023-04-03T01:04:37;3.60;1.00
11944;DHT22;6031;50.220;10.122;2023-04-03T01:07:26;3.60;1.00
11944;DHT22;6031;50.220;10.122;2023-04-03T01:09:56;3.60;1.00
11944;DHT22;6031;50.220;10.122;2023-04-03T01:12:26;3.60;1.00
11944;DHT22;6031;50.220;10.122;2023-04-03T01:14:55;3.60;99.90
11944;DHT22;6031;50.220;10.122;2023-04-03T01:17:32;3.60;99.90
11944;DHT22;6031;50.220;10.122;2023-04-03T01:25:31;3.60;99.90
11944;DHT22;6031;50.220;10.122;2023-04-03T01:27:57;3.60;1.00
11944;DHT22;6031;50.220;10.122;2023-04-03T01:30:28;3.60;99.90
11944;DHT22;6031;50.220;10.122;2023-04-03T01:32:56;3.60;1.00
11944;DHT22;6031;50.220;10.122;2023-04-03T01:35:22;3.60;1.00
11944;DHT22;6031;50.220;10.122;2023-04-03T01:37:47;3.50;99.90
11944;DHT22;6031;50.220;10.122;2023-04-03T01:40:13;3.50;99.90
11944;DHT22;6031;50.220;10.122;2023-04-03T01:42:38;3.50;99.90
11944;DHT22;6031;50.220;10.122;2023-04-03T01:45:04;3.40;81.00
11944;DHT22;6031;50.220;10.122;2023-04-03T01:47:30;3.40;99.90
11944;DHT22;6031;50.220;10.122;2023-04-03T01:49:56;3.40;99.90
11944;DHT22;6031;50.220;10.122;2023-04-03T01:52:21;3.40;30.60
11944;DHT22;6031;50.220;10.122;2023-04-03T01:54:47;3.40;1.00
11944;DHT22;6031;50.220;10.122;2023-04-03T01:57:12;3.40;1.00
11944;DHT22;6031;50.220;10.122;2023-04-03T01:59:40;3.30;1.00
11944;DHT22;6031;50.220;10.122;2023-04-03T02:02:06;3.30;1.00
11944;DHT22;6031;50.220;10.122;2023-04-03T02:04:32;3.30;1.00
11944;DHT22;6031;50.220;10.122;2023-04-03T02:06:57;3.30;1.00
11944;DHT22;6031;50.220;10.122;2023-04-03T02:09:23;3.20;1.00
11944;DHT22;6031;50.220;10.122;2023-04-03T02:11:49;3.20;1.00
11944;DHT22;6031;50.220;10.122;2023-04-03T02:14:14;3.20;1.00
11944;DHT22;6031;50.220;10.122;2023-04-03T02:16:40;3.10;1.00
11944;DHT22;6031;50.220;10.122;2023-04-03T02:19:06;3.10;1.00
11944;DHT22;6031;50.220;10.122;2023-04-03T02:21:31;3.00;1.00
11944;DHT22;6031;50.220;10.122;2023-04-03T02:23:57;3.00;1.00
11944;DHT22;6031;50.220;10.122;2023-04-03T02:26:23;2.90;1.00
11944;DHT22;6031;50.220;10.122;2023-04-03T02:28:48;2.90;54.00
11944;DHT22;6031;50.220;10.122;2023-04-03T02:31:14;2.90;69.80
11944;DHT22;6031;50.220;10.122;2023-04-03T02:33:40;2.90;99.90
11944;DHT22;6031;50.220;10.122;2023-04-03T02:36:07;2.90;38.10
11944;DHT22;6031;50.220;10.122;2023-04-03T02:38:33;2.80;1.00
11944;DHT22;6031;50.220;10.122;2023-04-03T02:41:03;2.80;54.50
11944;DHT22;6031;50.220;10.122;2023-04-03T02:43:29;2.70;62.70
11944;DHT22;6031;50.220;10.122;2023-04-03T02:45:55;2.60;99.90
11944;DHT22;6031;50.220;10.122;2023-04-03T02:48:22;2.50;99.90
11944;DHT22;6031;50.220;10.122;2023-04-03T02:50:47;2.50;1.00
11944;DHT22;6031;50.220;10.122;2023-04-03T02:53:13;2.50;1.00
11944;DHT22;6031;50.220;10.122;2023-04-03T02:55:38;2.50;1.00
11944;DHT22;6031;50.220;10.122;2023-04-03T02:58:04;2.50;1.00
11944;DHT22;6031;50.220;10.122;2023-04-03T03:00:30;2.30;1.00
11944;DHT22;6031;50.220;10.122;2023-04-03T03:02:56;2.20;1.00
11944;DHT22;6031;50.220;10.122;2023-04-03T03:05:21;2.10;1.00
11944;DHT22;6031;50.220;10.122;2023-04-03T03:07:47;2.10;99.90
11944;DHT22;6031;50.220;10.122;2023-04-03T03:10:13;2.00;99.90
11944;DHT22;6031;50.220;10.122;2023-04-03T03:12:38;1.90;99.90
11944;DHT22;6031;50.220;10.122;2023-04-03T03:15:04;1.90;1.00
11944;DHT22;6031;50.220;10.122;2023-04-03T03:17:30;1.80;1.00
11944;DHT22;6031;50.220;10.122;2023-04-03T03:19:56;1.70;1.00
11944;DHT22;6031;50.220;10.122;2023-04-03T03:22:21;1.70;1.00
11944;DHT22;6031;50.220;10.122;2023-04-03T03:24:47;1.50;1.00
11944;DHT22;6031;50.220;10.122;2023-04-03T03:27:12;1.50;99.90
11944;DHT22;6031;50.220;10.122;2023-04-03T03:29:38;1.40;99.90
11944;DHT22;6031;50.220;10.122;2023-04-03T03:32:03;1.40;1.00
11944;DHT22;6031;50.220;10.122;2023-04-03T03:34:29;1.40;99.90
11944;DHT22;6031;50.220;10.122;2023-04-03T03:36:55;1.40;1.00
11944;DHT22;6031;50.220;10.122;2023-04-03T03:39:21;1.30;99.90
11944;DHT22;6031;50.220;10.122;2023-04-03T03:41:46;1.30;1.00
11944;DHT22;6031;50.220;10.122;2023-04-03T03:44:12;1.20;99.90
11944;DHT22;6031;50.220;10.122;2023-04-03T03:46:38;1.20;16.40
11944;DHT22;6031;50.220;10.122;2023-04-03T03:49:03;1.20;99.90
11944;DHT22;6031;50.220;10.122;2023-04-03T03:51:29;1.10;1.00
11944;DHT22;6031;50.220;10.122;2023-04-03T03:53:55;1.10;99.90
11944;DHT22;6031;50.220;10.122;2023-04-03T03:56:20;1.10;99.90
11944;DHT22;6031;50.220;10.122;2023-04-03T03:58:46;1.00;99.90
11944;DHT22;6031;50.220;10.122;2023-04-03T04:01:11;1.10;1.00
11944;DHT22;6031;50.220;10.122;2023-04-03T04:03:37;0.90;99.90
11944;DHT22;6031;50.220;10.122;2023-04-03T04:06:03;0.90;1.00
11944;DHT22;6031;50.220;10.122;2023-04-03T04:08:28;0.90;1.00
11944;DHT22;6031;50.220;10.122;2023-04-03T04:10:54;0.80;1.00
11944;DHT22;6031;50.220;10.122;2023-04-03T04:13:20;0.80;1.00
11944;DHT22;6031;50.220;10.122;2023-04-03T04:15:46;0.80;1.00
11944;DHT22;6031;50.220;10.122;2023-04-03T04:18:11;0.80;1.00
11944;DHT22;6031;50.220;10.122;2023-04-03T04:20:37;0.80;24.70
11944;DHT22;6031;50.220;10.122;2023-04-03T04:23:02;0.80;99.90
11944;DHT22;6031;50.220;10.122;2023-04-03T04:25:28;0.80;96.70
11944;DHT22;6031;50.220;10.122;2023-04-03T04:27:53;0.80;99.90
11944;DHT22;6031;50.220;10.122;2023-04-03T04:30:19;0.80;3.30
11944;DHT22;6031;50.220;10.122;2023-04-03T04:32:44;0.70;1.00
11944;DHT22;6031;50.220;10.122;2023-04-03T04:35:10;0.70;1.00
11944;DHT22;6031;50.220;10.122;2023-04-03T04:37:35;0.70;1.00
11944;DHT22;6031;50.220;10.122;2023-04-03T04:40:01;0.60;1.00
11944;DHT22;6031;50.220;10.122;2023-04-03T04:42:27;0.70;99.90
11944;DHT22;6031;50.220;10.122;2023-04-03T04:44:52;0.70;1.00
11944;DHT22;6031;50.220;10.122;2023-04-03T04:47:18;0.60;99.90
11944;DHT22;6031;50.220;10.122;2023-04-03T04:49:43;0.60;96.20
11944;DHT22;6031;50.220;10.122;2023-04-03T04:52:09;0.60;75.80
11944;DHT22;6031;50.220;10.122;2023-04-03T04:54:34;0.60;1.00
11944;DHT22;6031;50.220;10.122;2023-04-03T04:57:00;0.60;1.00
11944;DHT22;6031;50.220;10.122;2023-04-03T04:59:25;0.60;1.00
11944;DHT22;6031;50.220;10.122;2023-04-03T05:01:51;0.60;1.00
11944;DHT22;6031;50.220;10.122;2023-04-03T05:04:17;0.70;57.40
11944;DHT22;6031;50.220;10.122;2023-04-03T05:06:42;0.70;99.90
11944;DHT22;6031;50.220;10.122;2023-04-03T05:09:08;0.60;1.00
11944;DHT22;6031;50.220;10.122;2023-04-03T05:11:35;0.60;1.00
11944;DHT22;6031;50.220;10.122;2023-04-03T05:14:00;0.60;99.90
11944;DHT22;6031;50.220;10.122;2023-04-03T05:16:26;0.60;1.00
11944;DHT22;6031;50.220;10.122;2023-04-03T05:18:51;0.60;99.90
11944;DHT22;6031;50.220;10.122;2023-04-03T05:21:17;0.60;1.00
11944;DHT22;6031;50.220;10.122;2023-04-03T05:23:43;0.60;1.00
11944;DHT22;6031;50.220;10.122;2023-04-03T05:26:09;0.30;1.00
11944;DHT22;6031;50.220;10.122;2023-04-03T05:28:35;0.60;1.00
11944;DHT22;6031;50.220;10.122;2023-04-03T05:31:00;0.60;1.00
11944;DHT22;6031;50.220;10.122;2023-04-03T05:33:26;0.60;99.90
11944;DHT22;6031;50.220;10.122;2023-04-03T05:35:53;0.60;1.00
11944;DHT22;6031;50.220;10.122;2023-04-03T05:38:18;0.60;1.00
11944;DHT22;6031;50.220;10.122;2023-04-03T05:40:44;0.60;99.90
11944;DHT22;6031;50.220;10.122;2023-04-03T05:43:09;0.60;99.90
11944;DHT22;6031;50.220;10.122;2023-04-03T05:45:35;0.70;1.00
11944;DHT22;6031;50.220;10.122;2023-04-03T05:48:01;0.70;1.00
11944;DHT22;6031;50.220;10.122;2023-04-03T05:50:26;0.80;99.90
11944;DHT22;6031;50.220;10.122;2023-04-03T05:52:55;0.80;99.90
11944;DHT22;6031;50.220;10.122;2023-04-03T05:55:21;0.80;99.90
11944;DHT22;6031;50.220;10.122;2023-04-03T05:57:47;0.90;1.00
11944;DHT22;6031;50.220;10.122;2023-04-03T06:00:13;1.30;1.00
11944;DHT22;6031;50.220;10.122;2023-04-03T06:02:41;2.10;1.00
11944;DHT22;6031;50.220;10.122;2023-04-03T06:05:08;2.80;1.00
11944;DHT22;6031;50.220;10.122;2023-04-03T06:07:34;3.50;1.00
11944;DHT22;6031;50.220;10.122;2023-04-03T06:10:00;4.20;1.00
11944;DHT22;6031;50.220;10.122;2023-04-03T06:12:26;4.50;1.00
11944;DHT22;6031;50.220;10.122;2023-04-03T06:14:54;4.40;51.60
11944;DHT22;6031;50.220;10.122;2023-04-03T06:17:19;4.70;1.00
11944;DHT22;6031;50.220;10.122;2023-04-03T06:19:45;4.60;1.00
11944;DHT22;6031;50.220;10.122;2023-04-03T06:22:11;4.50;1.00
11944;DHT22;6031;50.220;10.122;2023-04-03T06:24:37;4.70;1.00
11944;DHT22;6031;50.220;10.122;2023-04-03T06:27:03;4.50;1.00
11944;DHT22;6031;50.220;10.122;2023-04-03T06:29:29;4.90;1.00
11944;DHT22;6031;50.220;10.122;2023-04-03T06:31:55;5.60;99.90
11944;DHT22;6031;50.220;10.122;2023-04-03T06:34:21;5.40;99.90
11944;DHT22;6031;50.220;10.122;2023-04-03T06:36:47;5.40;1.00
11944;DHT22;6031;50.220;10.122;2023-04-03T06:39:15;5.40;99.90
11944;DHT22;6031;50.220;10.122;2023-04-03T06:41:42;5.70;99.90
11944;DHT22;6031;50.220;10.122;2023-04-03T06:44:07;5.70;99.90
11944;DHT22;6031;50.220;10.122;2023-04-03T06:46:37;6.20;99.90
11944;DHT22;6031;50.220;10.122;2023-04-03T06:49:04;5.50;99.90
11944;DHT22;6031;50.220;10.122;2023-04-03T06:51:30;5.30;99.90
11944;DHT22;6031;50.220;10.122;2023-04-03T06:53:57;5.80;54.90
11944;DHT22;6031;50.220;10.122;2023-04-03T06:56:24;5.90;2.20
11944;DHT22;6031;50.220;10.122;2023-04-03T06:58:50;6.30;1.00
11944;DHT22;6031;50.220;10.122;2023-04-03T07:01:18;6.90;1.00
11944;DHT22;6031;50.220;10.122;2023-04-03T07:03:47;7.00;1.00
11944;DHT22;6031;50.220;10.122;2023-04-03T07:06:14;6.90;1.00
11944;DHT22;6031;50.220;10.122;2023-04-03T07:08:40;7.30;1.00
11944;DHT22;6031;50.220;10.122;2023-04-03T07:11:07;7.90;1.00
11944;DHT22;6031;50.220;10.122;2023-04-03T07:13:33;8.80;1.00
11944;DHT22;6031;50.220;10.122;2023-04-03T07:15:59;8.80;1.00
11944;DHT22;6031;50.220;10.122;2023-04-03T07:18:25;9.00;1.00
11944;DHT22;6031;50.220;10.122;2023-04-03T07:20:50;8.20;1.00
11944;DHT22;6031;50.220;10.122;2023-04-03T07:23:16;8.60;1.00
11944;DHT22;6031;50.220;10.122;2023-04-03T07:25:46;8.50;1.00
11944;DHT22;6031;50.220;10.122;2023-04-03T07:28:13;8.20;1.00
11944;DHT22;6031;50.220;10.122;2023-04-03T07:30:46;7.50;1.00
11944;DHT22;6031;50.220;10.122;2023-04-03T07:33:13;7.10;1.00
11944;DHT22;6031;50.220;10.122;2023-04-03T07:35:39;6.70;1.00
11944;DHT22;6031;50.220;10.122;2023-04-03T07:38:05;7.00;1.00
11944;DHT22;6031;50.220;10.122;2023-04-03T07:40:31;8.60;1.00
11944;DHT22;6031;50.220;10.122;2023-04-03T07:42:57;8.90;1.00
11944;DHT22;6031;50.220;10.122;2023-04-03T07:45:23;9.70;1.00
11944;DHT22;6031;50.220;10.122;2023-04-03T07:47:49;10.00;1.00
11944;DHT22;6031;50.220;10.122;2023-04-03T07:50:14;9.50;1.00
11944;DHT22;6031;50.220;10.122;2023-04-03T07:52:40;9.00;1.00
11944;DHT22;6031;50.220;10.122;2023-04-03T07:55:06;8.80;1.00
11944;DHT22;6031;50.220;10.122;2023-04-03T07:57:32;9.30;1.00
11944;DHT22;6031;50.220;10.122;2023-04-03T07:59:57;9.90;1.00
11944;DHT22;6031;50.220;10.122;2023-04-03T08:02:23;9.80;1.00
11944;DHT22;6031;50.220;10.122;2023-04-03T08:04:48;9.60;1.00
11944;DHT22;6031;50.220;10.122;2023-04-03T08:07:14;8.80;1.00
11944;DHT22;6031;50.220;10.122;2023-04-03T08:09:39;9.40;1.00
11944;DHT22;6031;50.220;10.122;2023-04-03T08:12:05;9.10;1.00
11944;DHT22;6031;50.220;10.122;2023-04-03T08:14:32;10.00;1.00
11944;DHT22;6031;50.220;10.122;2023-04-03T08:16:59;10.20;1.00
11944;DHT22;6031;50.220;10.122;2023-04-03T08:19:26;11.30;1.00
11944;DHT22;6031;50.220;10.122;2023-04-03T08:21:52;11.40;1.00
11944;DHT22;6031;50.220;10.122;2023-04-03T08:24:17;9.90;1.00
11944;DHT22;6031;50.220;10.122;2023-04-03T08:26:43;8.90;1.00
11944;DHT22;6031;50.220;10.122;2023-04-03T08:29:08;8.50;1.00
11944;DHT22;6031;50.220;10.122;2023-04-03T08:31:34;8.00;1.00
11944;DHT22;6031;50.220;10.122;2023-04-03T08:33:59;7.30;1.00
11944;DHT22;6031;50.220;10.122;2023-04-03T08:36:27;6.50;1.00
11944;DHT22;6031;50.220;10.122;2023-04-03T08:38:54;6.20;1.00
11944;DHT22;6031;50.220;10.122;2023-04-03T08:41:36;6.70;1.00
11944;DHT22;6031;50.220;10.122;2023-04-03T08:47:28;7.00;1.00
11944;DHT22;6031;50.220;10.122;2023-04-03T08:52:38;6.90;1.00
11944;DHT22;6031;50.220;10.122;2023-04-03T08:55:10;7.50;1.00
11944;DHT22;6031;50.220;10.122;2023-04-03T08:57:41;7.10;1.00
11944;DHT22;6031;50.220;10.122;2023-04-03T09:00:21;7.50;1.00
11944;DHT22;6031;50.220;10.122;2023-04-03T09:02:49;7.80;1.00
11944;DHT22;6031;50.220;10.122;2023-04-03T09:05:26;6.40;1.00
11944;DHT22;6031;50.220;10.122;2023-04-03T09:08:21;6.20;1.00
11944;DHT22;6031;50.220;10.122;2023-04-03T09:10:48;6.20;1.00
11944;DHT22;6031;50.220;10.122;2023-04-03T09:13:35;6.00;1.00
11944;DHT22;6031;50.220;10.122;2023-04-03T09:16:14;5.70;1.00
11944;DHT22;6031;50.220;10.122;2023-04-03T09:18:45;5.70;1.00
11944;DHT22;6031;50.220;10.122;2023-04-03T09:21:32;5.70;1.00
11944;DHT22;6031;50.220;10.122;2023-04-03T09:24:01;5.30;1.00
11944;DHT22;6031;50.220;10.122;2023-04-03T09:26:43;5.50;1.00
11944;DHT22;6031;50.220;10.122;2023-04-03T09:29:16;6.20;1.00
11944;DHT22;6031;50.220;10.122;2023-04-03T09:31:44;6.30;1.00
11944;DHT22;6031;50.220;10.122;2023-04-03T09:34:32;6.50;1.00
11944;DHT22;6031;50.220;10.122;2023-04-03T09:36:59;6.40;1.00
11944;DHT22;6031;50.220;10.122;2023-04-03T09:39:32;7.20;1.00
11944;DHT22;6031;50.220;10.122;2023-04-03T09:42:03;8.60;1.00
11944;DHT22;6031;50.220;10.122;2023-04-03T09:44:35;10.00;1.00
11944;DHT22;6031;50.220;10.122;2023-04-03T09:49:43;12.60;1.00
11944;DHT22;6031;50.220;10.122;2023-04-03T09:52:26;14.10;1.00
11944;DHT22;6031;50.220;10.122;2023-04-03T09:54:52;15.50;1.00
11944;DHT22;6031;50.220;10.122;2023-04-03T09:57:17;15.10;1.00
11944;DHT22;6031;50.220;10.122;2023-04-03T10:00:00;15.10;1.00
11944;DHT22;6031;50.220;10.122;2023-04-03T10:02:37;14.20;1.00
11944;DHT22;6031;50.220;10.122;2023-04-03T10:05:26;13.20;1.00
11944;DHT22;6031;50.220;10.122;2023-04-03T10:07:50;12.90;1.00
11944;DHT22;6031;50.220;10.122;2023-04-03T10:10:19;13.90;1.00
11944;DHT22;6031;50.220;10.122;2023-04-03T10:12:45;13.90;1.00
11944;DHT22;6031;50.220;10.122;2023-04-03T10:15:15;13.40;1.00
11944;DHT22;6031;50.220;10.122;2023-04-03T10:17:56;14.20;1.00
11944;DHT22;6031;50.220;10.122;2023-04-03T10:20:39;13.20;1.00
11944;DHT22;6031;50.220;10.122;2023-04-03T10:23:42;12.30;1.00
11944;DHT22;6031;50.220;10.122;2023-04-03T10:29:31;12.50;1.00
11944;DHT22;6031;50.220;10.122;2023-04-03T10:32:29;11.00;1.00
11944;DHT22;6031;50.220;10.122;2023-04-03T10:38:01;11.00;1.00
11944;DHT22;6031;50.220;10.122;2023-04-03T10:43:42;14.40;1.00
11944;DHT22;6031;50.220;10.122;2023-04-03T10:46:40;13.60;1.00
11944;DHT22;6031;50.220;10.122;2023-04-03T10:49:38;15.10;1.00
11944;DHT22;6031;50.220;10.122;2023-04-03T10:52:22;16.10;1.00
11944;DHT22;6031;50.220;10.122;2023-04-03T10:55:03;14.50;1.00
11944;DHT22;6031;50.220;10.122;2023-04-03T10:57:32;13.00;1.00
11944;DHT22;6031;50.220;10.122;2023-04-03T11:00:03;12.70;1.00
11944;DHT22;6031;50.220;10.122;2023-04-03T11:05:40;11.80;1.00
11944;DHT22;6031;50.220;10.122;2023-04-03T11:10:48;12.40;1.00
11944;DHT22;6031;50.220;10.122;2023-04-03T11:13:19;13.10;1.00
11944;DHT22;6031;50.220;10.122;2023-04-03T11:15:46;12.30;1.00
11944;DHT22;6031;50.220;10.122;2023-04-03T11:18:17;12.30;1.00
11944;DHT22;6031;50.220;10.122;2023-04-03T11:21:04;13.80;1.00
11944;DHT22;6031;50.220;10.122;2023-04-03T11:23:38;13.70;1.00
11944;DHT22;6031;50.220;10.122;2023-04-03T11:26:10;14.70;1.00
11944;DHT22;6031;50.220;10.122;2023-04-03T11:28:36;14.90;1.00
11944;DHT22;6031;50.220;10.122;2023-04-03T11:34:18;13.70;1.00
11944;DHT22;6031;50.220;10.122;2023-04-03T11:36:50;13.50;1.00
11944;DHT22;6031;50.220;10.122;2023-04-03T11:39:25;13.90;1.00
11944;DHT22;6031;50.220;10.122;2023-04-03T11:41:52;14.70;1.00
11944;DHT22;6031;50.220;10.122;2023-04-03T11:44:38;16.00;1.00
11944;DHT22;6031;50.220;10.122;2023-04-03T11:47:05;14.60;1.00
11944;DHT22;6031;50.220;10.122;2023-04-03T12:08:51;12.50;1.00
11944;DHT22;6031;50.220;10.122;2023-04-03T12:11:28;12.60;1.00
11944;DHT22;6031;50.220;10.122;2023-04-03T12:16:33;11.60;1.00
11944;DHT22;6031;50.220;10.122;2023-04-03T12:19:34;12.20;1.00
11944;DHT22;6031;50.220;10.122;2023-04-03T12:24:31;14.30;1.00
11944;DHT22;6031;50.220;10.122;2023-04-03T12:35:30;14.40;1.00
11944;DHT22;6031;50.220;10.122;2023-04-03T12:46:17;13.80;1.00
11944;DHT22;6031;50.220;10.122;2023-04-03T12:48:49;13.90;1.00
11944;DHT22;6031;50.220;10.122;2023-04-03T12:54:02;12.90;1.00
11944;DHT22;6031;50.220;10.122;2023-04-03T12:56:30;12.00;1.00
11944;DHT22;6031;50.220;10.122;2023-04-03T12:59:23;12.30;1.00
11944;DHT22;6031;50.220;10.122;2023-04-03T13:01:56;13.40;1.00
11944;DHT22;6031;50.220;10.122;2023-04-03T13:04:22;12.80;1.00
11944;DHT22;6031;50.220;10.122;2023-04-03T13:06:49;12.70;1.00
11944;DHT22;6031;50.220;10.122;2023-04-03T13:09:26;11.80;1.00
11944;DHT22;6031;50.220;10.122;2023-04-03T13:12:13;11.60;1.00
11944;DHT22;6031;50.220;10.122;2023-04-03T13:14:39;11.60;1.00
11944;DHT22;6031;50.220;10.122;2023-04-03T13:17:14;11.20;1.00
11944;DHT22;6031;50.220;10.122;2023-04-03T13:19:41;11.30;1.00
11944;DHT22;6031;50.220;10.122;2023-04-03T13:22:28;11.80;1.00
11944;DHT22;6031;50.220;10.122;2023-04-03T13:24:58;12.20;1.00
11944;DHT22;6031;50.220;10.122;2023-04-03T13:27:24;11.00;1.00
11944;DHT22;6031;50.220;10.122;2023-04-03T13:29:54;10.30;1.00
11944;DHT22;6031;50.220;10.122;2023-04-03T13:32:24;10.50;1.00
11944;DHT22;6031;50.220;10.122;2023-04-03T13:34:50;11.00;1.00
11944;DHT22;6031;50.220;10.122;2023-04-03T13:42:29;11.00;1.00
11944;DHT22;6031;50.220;10.122;2023-04-03T13:47:42;12.00;1.00
11944;DHT22;6031;50.220;10.122;2023-04-03T13:55:54;11.60;1.00
11944;DHT22;6031;50.220;10.122;2023-04-03T13:58:23;11.30;1.00
11944;DHT22;6031;50.220;10.122;2023-04-03T14:01:15;11.30;1.00
11944;DHT22;6031;50.220;10.122;2023-04-03T14:03:58;10.70;1.00
11944;DHT22;6031;50.220;10.122;2023-04-03T14:06:25;11.30;1.00
11944;DHT22;6031;50.220;10.122;2023-04-03T14:08:51;11.20;1.00
11944;DHT22;6031;50.220;10.122;2023-04-03T14:11:19;10.90;1.00
11944;DHT22;6031;50.220;10.122;2023-04-03T14:13:46;10.90;1.00
11944;DHT22;6031;50.220;10.122;2023-04-03T14:16:15;11.40;1.00
11944;DHT22;6031;50.220;10.122;2023-04-03T14:18:43;11.40;1.00
11944;DHT22;6031;50.220;10.122;2023-04-03T14:21:11;11.00;1.00
11944;DHT22;6031;50.220;10.122;2023-04-03T14:23:38;10.50;1.00
11944;DHT22;6031;50.220;10.122;2023-04-03T14:26:08;10.50;1.00
11944;DHT22;6031;50.220;10.122;2023-04-03T14:28:35;10.50;1.00
11944;DHT22;6031;50.220;10.122;2023-04-03T14:31:00;10.50;1.00
11944;DHT22;6031;50.220;10.122;2023-04-03T14:33:26;11.10;1.00
11944;DHT22;6031;50.220;10.122;2023-04-03T14:35:53;11.10;1.00
11944;DHT22;6031;50.220;10.122;2023-04-03T14:38:27;10.40;1.00
11944;DHT22;6031;50.220;10.122;2023-04-03T14:40:54;10.40;1.00
11944;DHT22;6031;50.220;10.122;2023-04-03T14:43:20;9.80;1.00
11944;DHT22;6031;50.220;10.122;2023-04-03T14:45:48;9.80;1.00
11944;DHT22;6031;50.220;10.122;2023-04-03T14:48:24;9.70;1.00
11944;DHT22;6031;50.220;10.122;2023-04-03T14:50:51;9.70;1.00
11944;DHT22;6031;50.220;10.122;2023-04-03T14:53:18;9.10;1.00
11944;DHT22;6031;50.220;10.122;2023-04-03T14:55:48;9.20;1.00
11944;DHT22;6031;50.220;10.122;2023-04-03T14:58:16;9.40;1.00
11944;DHT22;6031;50.220;10.122;2023-04-03T15:00:42;9.40;1.00
11944;DHT22;6031;50.220;10.122;2023-04-03T15:03:19;9.60;1.00
11944;DHT22;6031;50.220;10.122;2023-04-03T15:05:46;9.00;1.00
11944;DHT22;6031;50.220;10.122;2023-04-03T15:08:23;8.70;1.00
11944;DHT22;6031;50.220;10.122;2023-04-03T15:10:50;8.80;1.00
11944;DHT22;6031;50.220;10.122;2023-04-03T15:13:18;8.50;1.00
11944;DHT22;6031;50.220;10.122;2023-04-03T15:15:45;8.10;1.00
11944;DHT22;6031;50.220;10.122;2023-04-03T15:18:15;8.40;1.00
11944;DHT22;6031;50.220;10.122;2023-04-03T15:20:42;8.70;1.00
11944;DHT22;6031;50.220;10.122;2023-04-03T15:23:10;9.10;1.00
11944;DHT22;6031;50.220;10.122;2023-04-03T15:25:36;9.20;1.00
11944;DHT22;6031;50.220;10.122;2023-04-03T15:28:01;9.00;1.00
11944;DHT22;6031;50.220;10.122;2023-04-03T15:30:27;8.70;1.00
11944;DHT22;6031;50.220;10.122;2023-04-03T15:32:52;8.50;1.00
11944;DHT22;6031;50.220;10.122;2023-04-03T15:35:18;8.10;1.00
11944;DHT22;6031;50.220;10.122;2023-04-03T15:37:43;7.90;1.00
11944;DHT22;6031;50.220;10.122;2023-04-03T15:40:09;7.80;1.00
11944;DHT22;6031;50.220;10.122;2023-04-03T15:42:35;7.60;1.00
11944;DHT22;6031;50.220;10.122;2023-04-03T15:45:01;7.50;1.00
11944;DHT22;6031;50.220;10.122;2023-04-03T15:47:27;7.30;1.00
11944;DHT22;6031;50.220;10.122;2023-04-03T15:49:53;7.00;1.00
11944;DHT22;6031;50.220;10.122;2023-04-03T15:52:19;7.10;1.00
11944;DHT22;6031;50.220;10.122;2023-04-03T15:54:45;6.90;1.00
11944;DHT22;6031;50.220;10.122;2023-04-03T15:57:10;6.60;1.00
11944;DHT22;6031;50.220;10.122;2023-04-03T15:59:36;6.60;1.00
11944;DHT22;6031;50.220;10.122;2023-04-03T16:02:04;6.50;1.00
11944;DHT22;6031;50.220;10.122;2023-04-03T16:04:32;6.60;1.00
11944;DHT22;6031;50.220;10.122;2023-04-03T16:07:01;6.50;1.00
11944;DHT22;6031;50.220;10.122;2023-04-03T16:09:27;6.50;1.00
11944;DHT22;6031;50.220;10.122;2023-04-03T16:11:53;6.40;1.00
11944;DHT22;6031;50.220;10.122;2023-04-03T16:14:18;6.30;1.00
11944;DHT22;6031;50.220;10.122;2023-04-03T16:16:44;6.40;1.00
11944;DHT22;6031;50.220;10.122;2023-04-03T16:19:09;6.50;1.00
11944;DHT22;6031;50.220;10.122;2023-04-03T16:21:35;6.40;1.00
11944;DHT22;6031;50.220;10.122;2023-04-03T16:24:01;6.40;1.00
11944;DHT22;6031;50.220;10.122;2023-04-03T16:26:26;6.40;1.00
11944;DHT22;6031;50.220;10.122;2023-04-03T16:28:53;6.30;1.00
11944;DHT22;6031;50.220;10.122;2023-04-03T16:31:19;6.30;1.00
11944;DHT22;6031;50.220;10.122;2023-04-03T16:33:45;6.10;1.00
11944;DHT22;6031;50.220;10.122;2023-04-03T16:36:10;5.90;1.00
11944;DHT22;6031;50.220;10.122;2023-04-03T16:38:36;5.90;1.00
11944;DHT22;6031;50.220;10.122;2023-04-03T16:41:01;5.80;1.00
11944;DHT22;6031;50.220;10.122;2023-04-03T16:43:30;5.70;1.00
11944;DHT22;6031;50.220;10.122;2023-04-03T16:45:56;5.70;1.00
11944;DHT22;6031;50.220;10.122;2023-04-03T16:48:22;5.70;1.00
11944;DHT22;6031;50.220;10.122;2023-04-03T16:50:48;5.90;1.00
11944;DHT22;6031;50.220;10.122;2023-04-03T16:53:15;5.90;1.00
11944;DHT22;6031;50.220;10.122;2023-04-03T16:55:41;5.70;1.00
11944;DHT22;6031;50.220;10.122;2023-04-03T16:58:06;5.50;1.00
11944;DHT22;6031;50.220;10.122;2023-04-03T17:00:32;5.50;1.00
11944;DHT22;6031;50.220;10.122;2023-04-03T17:02:59;5.40;1.00
11944;DHT22;6031;50.220;10.122;2023-04-03T17:05:25;5.20;1.00
11944;DHT22;6031;50.220;10.122;2023-04-03T17:07:50;5.20;1.00
11944;DHT22;6031;50.220;10.122;2023-04-03T17:10:16;5.20;1.00
11944;DHT22;6031;50.220;10.122;2023-04-03T17:12:41;5.20;1.00
11944;DHT22;6031;50.220;10.122;2023-04-03T17:15:07;4.90;1.00
11944;DHT22;6031;50.220;10.122;2023-04-03T17:17:33;4.90;1.00
11944;DHT22;6031;50.220;10.122;2023-04-03T17:19:59;4.80;1.00
11944;DHT22;6031;50.220;10.122;2023-04-03T17:22:24;4.90;1.00
11944;DHT22;6031;50.220;10.122;2023-04-03T17:24:50;4.90;1.00
11944;DHT22;6031;50.220;10.122;2023-04-03T17:27:16;4.90;1.00
11944;DHT22;6031;50.220;10.122;2023-04-03T17:29:41;4.80;1.00
11944;DHT22;6031;50.220;10.122;2023-04-03T17:32:07;4.70;1.00
11944;DHT22;6031;50.220;10.122;2023-04-03T17:34:32;4.70;1.00